Max Mariner — 9HA4085 — position and weather

sailwx.info

Track history (hours):
 
Tides and Currents Weather Stations Pressure Air Temp Water Temp Dewpoint Dewpoint Depression Visibility Wind Speed Wind Dir Waves Ship Positions

Max Mariner

Last reported at 2018-Jun-20 21:39 UTC. Time now 2018-Jun-22 01:29 UTC.
Position N 34°25' E 134°11'.

Length 132 m; draft 7.3 m.

Type: Cargo ship. MMSI: 249031000.

Date/timePositionNaut miles runAvg speedWind from/ knotsBaromVisibWave heightAir tempDewpointWater temp
2018-Jun-20 21:39N 34°25' E 134°11'210.3
2018-Jun-20 21:30N 34°25' E 134°13'510.2
2018-Jun-20 21:00N 34°24' E 134°19'610.3
2018-Jun-20 20:25N 34°26' E 134°26'510.3
2018-Jun-20 19:59N 34°28' E 134°31'810.2
2018-Jun-20 19:11N 34°31' E 134°40'13 9.7
2018-Jun-20 17:54N 34°36' E 134°54'510.3
2018-Jun-20 17:27N 34°38' E 134°59'512.4
2018-Jun-20 17:00N 34°36' E 135°05'510.5
2018-Jun-20 16:30N 34°36' E 135°12'611.0
2018-Jun-20 15:57N 34°37' E 135°19'512.0
2018-Jun-20 15:30N 34°39' E 135°25'1 0.2
2018-Jun-20 07:58N 34°38' E 135°26'6 8.6
2018-Jun-20 07:19N 34°36' E 135°20'413.1
2018-Jun-20 07:00N 34°39' E 135°16'2 2.7
2018-Jun-20 06:25N 34°40' E 135°14'0 0.0
2018-Jun-20 05:43N 34°40' E 135°14'0 0.0
2018-Jun-20 05:25N 34°40' E 135°14'0 0.0
2018-Jun-20 04:55N 34°40' E 135°14'0 0.0
2018-Jun-20 04:25N 34°40' E 135°14'0 0.0
2018-Jun-20 03:55N 34°40' E 135°14'0 0.0
2018-Jun-20 03:25N 34°40' E 135°14'0 0.0
2018-Jun-20 02:55N 34°40' E 135°14'0 0.0
2018-Jun-20 02:28N 34°40' E 135°14'2 4.0
2018-Jun-20 02:00N 34°38' E 135°16'611.2
2018-Jun-20 01:30N 34°35' E 135°11'611.0
2018-Jun-20 01:00N 34°35' E 135°04'910.4
2018-Jun-20 00:08N 34°35' E 134°53'212.1
2018-Jun-19 23:58N 34°34' E 134°51'612.1
2018-Jun-19 23:31N 34°32' E 134°44'612.4
2018-Jun-19 23:00N 34°29' E 134°37'274 7.7
2018-Jun-18 11:17N 35°04' E 129°07'310.8
2018-Jun-18 11:00N 35°06' E 129°04'1 1.2
2018-Jun-18 10:11N 35°07' E 129°04'0 0.0
2018-Jun-18 09:44N 35°07' E 129°04'0 0.0
2018-Jun-18 07:05N 35°07' E 129°04'0 0.0
2018-Jun-18 06:47N 35°07' E 129°04'0 0.0
2018-Jun-18 06:17N 35°07' E 129°04'0 0.0
2018-Jun-18 05:59N 35°07' E 129°04'0 0.1
2018-Jun-18 05:29N 35°07' E 129°04'0 0.0
2018-Jun-18 04:59N 35°07' E 129°04'0 0.0
2018-Jun-18 04:26N 35°07' E 129°04'0 0.0
2018-Jun-18 03:50N 35°07' E 129°04'0 0.0
2018-Jun-18 03:29N 35°07' E 129°04'1 2.3
2018-Jun-18 03:00N 35°06' E 129°04'4 0.1
2018-Jun-16 13:25N 35°02' E 129°06'4 9.9
2018-Jun-16 13:01N 35°06' E 129°04'2 3.1
2018-Jun-16 12:30N 35°07' E 129°04'0 0.0
2018-Jun-16 11:58N 35°07' E 129°04'0 0.0
2018-Jun-16 11:28N 35°07' E 129°04'0 0.0
2018-Jun-16 10:58N 35°07' E 129°04'0 0.0
2018-Jun-16 10:28N 35°07' E 129°04'0 0.0
2018-Jun-16 09:55N 35°07' E 129°04'0 0.0
2018-Jun-16 09:22N 35°07' E 129°04'0 0.0
2018-Jun-16 08:58N 35°07' E 129°04'0 0.0
2018-Jun-16 08:28N 35°07' E 129°04'0 0.0
2018-Jun-16 07:58N 35°07' E 129°04'0 0.0
2018-Jun-16 07:28N 35°07' E 129°04'0 0.0
2018-Jun-16 06:58N 35°07' E 129°04'0 0.0
2018-Jun-16 06:28N 35°07' E 129°04'2 3.4
2018-Jun-16 06:00N 35°06' E 129°04'510.6
2018-Jun-16 05:31N 35°05' E 129°11'  
2018-Jun-13 21:21N 34°25' E 134°11'3 8.3
2018-Jun-13 21:00N 34°24' E 134°15'4 8.3
2018-Jun-13 20:28N 34°24' E 134°20'9 8.3
2018-Jun-13 19:26N 34°27' E 134°30'3 8.1
2018-Jun-13 19:00N 34°29' E 134°34'5 7.9
2018-Jun-13 18:19N 34°31' E 134°40'3 7.8
2018-Jun-13 17:57N 34°32' E 134°43'4 8.3
2018-Jun-13 17:30N 34°33' E 134°47'5 8.8
2018-Jun-13 16:58N 34°35' E 134°52'4 7.6
2018-Jun-13 16:30N 34°37' E 134°56'4 8.2
2018-Jun-13 16:00N 34°37' E 135°01'4 7.3
2018-Jun-13 15:30N 34°36' E 135°05'4 7.6
2018-Jun-13 15:00N 34°36' E 135°10'4 8.0
2018-Jun-13 14:30N 34°36' E 135°15'4 7.9
2018-Jun-13 14:00N 34°37' E 135°19'611.6
2018-Jun-13 13:30N 34°39' E 135°26'1 1.1
2018-Jun-13 13:00N 34°38' E 135°26'0 0.0
2018-Jun-13 12:29N 34°38' E 135°26'0 0.1
2018-Jun-13 11:59N 34°38' E 135°26'0 0.1
2018-Jun-13 11:29N 34°38' E 135°26'0 0.0
2018-Jun-13 10:59N 34°38' E 135°26'0 0.0
2018-Jun-13 10:29N 34°38' E 135°26'0 0.0
2018-Jun-13 09:53N 34°38' E 135°26'0 0.0
2018-Jun-13 09:17N 34°38' E 135°26'0 0.0
2018-Jun-13 08:59N 34°38' E 135°26'0 0.0
2018-Jun-13 08:29N 34°38' E 135°26'1 1.7
2018-Jun-13 08:00N 34°39' E 135°26'511.1
2018-Jun-13 07:30N 34°37' E 135°19'5 9.5
2018-Jun-13 07:00N 34°39' E 135°15'0 0.0
2018-Jun-13 06:29N 34°39' E 135°15'0 0.0
2018-Jun-13 05:53N 34°39' E 135°15'0 0.0
2018-Jun-13 05:23N 34°39' E 135°15'0 0.0
2018-Jun-13 04:59N 34°39' E 135°15'0 0.0
2018-Jun-13 04:23N 34°39' E 135°15'0 0.0
2018-Jun-13 03:59N 34°39' E 135°15'0 0.0
2018-Jun-13 03:29N 34°39' E 135°15'0 0.0
2018-Jun-13 02:44N 34°39' E 135°15'1 2.2
2018-Jun-13 02:30N 34°39' E 135°15'4 7.6
2018-Jun-13 02:00N 34°35' E 135°15'612.4
2018-Jun-13 01:30N 34°35' E 135°07'812.2
2018-Jun-13 00:51N 34°36' E 134°57'411.8
2018-Jun-13 00:30N 34°35' E 134°53'611.3
2018-Jun-13 00:00N 34°32' E 134°47'611.5
2018-Jun-12 23:30N 34°30' E 134°40'612.1
2018-Jun-12 23:00N 34°28' E 134°33'612.4
2018-Jun-12 22:30N 34°26' E 134°27'612.3
2018-Jun-12 22:00N 34°24' E 134°19'257 8.0
2018-Jun-11 14:00N 35°02' E 129°10'510.4
2018-Jun-11 13:30N 35°05' E 129°06'3 5.5
2018-Jun-11 13:00N 35°07' E 129°03'0 0.0
2018-Jun-11 12:29N 35°07' E 129°03'0 0.0
2018-Jun-11 11:59N 35°07' E 129°03'0 0.0
2018-Jun-11 11:26N 35°07' E 129°03'0 0.0
2018-Jun-11 10:59N 35°07' E 129°03'0 0.0
2018-Jun-11 10:29N 35°07' E 129°03'0 0.0
2018-Jun-11 09:59N 35°07' E 129°03'0 0.0
2018-Jun-11 09:29N 35°07' E 129°03'0 0.0
2018-Jun-11 08:59N 35°07' E 129°03'0 0.0
2018-Jun-11 08:23N 35°07' E 129°03'0 0.0
2018-Jun-11 07:59N 35°07' E 129°03'0 0.0
2018-Jun-11 07:29N 35°07' E 129°03'0 0.0
2018-Jun-11 06:59N 35°07' E 129°03'0 0.0
2018-Jun-11 06:23N 35°07' E 129°03'0 0.0
2018-Jun-11 05:59N 35°07' E 129°03'0 0.0
2018-Jun-11 05:29N 35°07' E 129°03'0 0.0
2018-Jun-11 04:56N 35°07' E 129°03'0 0.1
2018-Jun-11 04:30N 35°07' E 129°03'4 7.5
2018-Jun-11 04:00N 35°05' E 129°07'  
Track history (hours):
 
Tides and Currents Weather Stations Pressure Air Temp Water Temp Dewpoint Dewpoint Depression Visibility Wind Speed Wind Dir Waves Ship Positions

Max Mariner

Last reported at 2018-Jun-20 21:39 UTC. Time now 2018-Jun-22 01:29 UTC.
Position N 34°25' E 134°11'.

Length 132 m; draft 7.3 m.

Type: Cargo ship. MMSI: 249031000.

Date/timePositionNaut miles runAvg speedWind from/ knotsBaromVisibWave heightAir tempDewpointWater temp
2018-Jun-20 21:39N 34°25' E 134°11'210.3
2018-Jun-20 21:30N 34°25' E 134°13'510.2
2018-Jun-20 21:00N 34°24' E 134°19'610.3
2018-Jun-20 20:25N 34°26' E 134°26'510.3
2018-Jun-20 19:59N 34°28' E 134°31'810.2
2018-Jun-20 19:11N 34°31' E 134°40'13 9.7
2018-Jun-20 17:54N 34°36' E 134°54'510.3
2018-Jun-20 17:27N 34°38' E 134°59'512.4
2018-Jun-20 17:00N 34°36' E 135°05'510.5
2018-Jun-20 16:30N 34°36' E 135°12'611.0
2018-Jun-20 15:57N 34°37' E 135°19'512.0
2018-Jun-20 15:30N 34°39' E 135°25'1 0.2
2018-Jun-20 07:58N 34°38' E 135°26'6 8.6
2018-Jun-20 07:19N 34°36' E 135°20'413.1
2018-Jun-20 07:00N 34°39' E 135°16'2 2.7
2018-Jun-20 06:25N 34°40' E 135°14'0 0.0
2018-Jun-20 05:43N 34°40' E 135°14'0 0.0
2018-Jun-20 05:25N 34°40' E 135°14'0 0.0
2018-Jun-20 04:55N 34°40' E 135°14'0 0.0
2018-Jun-20 04:25N 34°40' E 135°14'0 0.0
2018-Jun-20 03:55N 34°40' E 135°14'0 0.0
2018-Jun-20 03:25N 34°40' E 135°14'0 0.0
2018-Jun-20 02:55N 34°40' E 135°14'0 0.0
2018-Jun-20 02:28N 34°40' E 135°14'2 4.0
2018-Jun-20 02:00N 34°38' E 135°16'611.2
2018-Jun-20 01:30N 34°35' E 135°11'611.0
2018-Jun-20 01:00N 34°35' E 135°04'910.4
2018-Jun-20 00:08N 34°35' E 134°53'212.1
2018-Jun-19 23:58N 34°34' E 134°51'612.1
2018-Jun-19 23:31N 34°32' E 134°44'612.4
2018-Jun-19 23:00N 34°29' E 134°37'274 7.7
2018-Jun-18 11:17N 35°04' E 129°07'310.8
2018-Jun-18 11:00N 35°06' E 129°04'1 1.2
2018-Jun-18 10:11N 35°07' E 129°04'0 0.0
2018-Jun-18 09:44N 35°07' E 129°04'0 0.0
2018-Jun-18 07:05N 35°07' E 129°04'0 0.0
2018-Jun-18 06:47N 35°07' E 129°04'0 0.0
2018-Jun-18 06:17N 35°07' E 129°04'0 0.0
2018-Jun-18 05:59N 35°07' E 129°04'0 0.1
2018-Jun-18 05:29N 35°07' E 129°04'0 0.0
2018-Jun-18 04:59N 35°07' E 129°04'0 0.0
2018-Jun-18 04:26N 35°07' E 129°04'0 0.0
2018-Jun-18 03:50N 35°07' E 129°04'0 0.0
2018-Jun-18 03:29N 35°07' E 129°04'1 2.3
2018-Jun-18 03:00N 35°06' E 129°04'4 0.1
2018-Jun-16 13:25N 35°02' E 129°06'4 9.9
2018-Jun-16 13:01N 35°06' E 129°04'2 3.1
2018-Jun-16 12:30N 35°07' E 129°04'0 0.0
2018-Jun-16 11:58N 35°07' E 129°04'0 0.0
2018-Jun-16 11:28N 35°07' E 129°04'0 0.0
2018-Jun-16 10:58N 35°07' E 129°04'0 0.0
2018-Jun-16 10:28N 35°07' E 129°04'0 0.0
2018-Jun-16 09:55N 35°07' E 129°04'0 0.0
2018-Jun-16 09:22N 35°07' E 129°04'0 0.0
2018-Jun-16 08:58N 35°07' E 129°04'0 0.0
2018-Jun-16 08:28N 35°07' E 129°04'0 0.0
2018-Jun-16 07:58N 35°07' E 129°04'0 0.0
2018-Jun-16 07:28N 35°07' E 129°04'0 0.0
2018-Jun-16 06:58N 35°07' E 129°04'0 0.0
2018-Jun-16 06:28N 35°07' E 129°04'2 3.4
2018-Jun-16 06:00N 35°06' E 129°04'510.6
2018-Jun-16 05:31N 35°05' E 129°11'  
2018-Jun-13 21:21N 34°25' E 134°11'3 8.3
2018-Jun-13 21:00N 34°24' E 134°15'4 8.3
2018-Jun-13 20:28N 34°24' E 134°20'9 8.3
2018-Jun-13 19:26N 34°27' E 134°30'3 8.1
2018-Jun-13 19:00N 34°29' E 134°34'5 7.9
2018-Jun-13 18:19N 34°31' E 134°40'3 7.8
2018-Jun-13 17:57N 34°32' E 134°43'4 8.3
2018-Jun-13 17:30N 34°33' E 134°47'5 8.8
2018-Jun-13 16:58N 34°35' E 134°52'4 7.6
2018-Jun-13 16:30N 34°37' E 134°56'4 8.2
2018-Jun-13 16:00N 34°37' E 135°01'4 7.3
2018-Jun-13 15:30N 34°36' E 135°05'4 7.6
2018-Jun-13 15:00N 34°36' E 135°10'4 8.0
2018-Jun-13 14:30N 34°36' E 135°15'4 7.9
2018-Jun-13 14:00N 34°37' E 135°19'611.6
2018-Jun-13 13:30N 34°39' E 135°26'1 1.1
2018-Jun-13 13:00N 34°38' E 135°26'0 0.0
2018-Jun-13 12:29N 34°38' E 135°26'0 0.1
2018-Jun-13 11:59N 34°38' E 135°26'0 0.1
2018-Jun-13 11:29N 34°38' E 135°26'0 0.0
2018-Jun-13 10:59N 34°38' E 135°26'0 0.0
2018-Jun-13 10:29N 34°38' E 135°26'0 0.0
2018-Jun-13 09:53N 34°38' E 135°26'0 0.0
2018-Jun-13 09:17N 34°38' E 135°26'0 0.0
2018-Jun-13 08:59N 34°38' E 135°26'0 0.0
2018-Jun-13 08:29N 34°38' E 135°26'1 1.7
2018-Jun-13 08:00N 34°39' E 135°26'511.1
2018-Jun-13 07:30N 34°37' E 135°19'5 9.5
2018-Jun-13 07:00N 34°39' E 135°15'0 0.0
2018-Jun-13 06:29N 34°39' E 135°15'0 0.0
2018-Jun-13 05:53N 34°39' E 135°15'0 0.0
2018-Jun-13 05:23N 34°39' E 135°15'0 0.0
2018-Jun-13 04:59N 34°39' E 135°15'0 0.0
2018-Jun-13 04:23N 34°39' E 135°15'0 0.0
2018-Jun-13 03:59N 34°39' E 135°15'0 0.0
2018-Jun-13 03:29N 34°39' E 135°15'0 0.0
2018-Jun-13 02:44N 34°39' E 135°15'1 2.2
2018-Jun-13 02:30N 34°39' E 135°15'4 7.6
2018-Jun-13 02:00N 34°35' E 135°15'612.4
2018-Jun-13 01:30N 34°35' E 135°07'812.2
2018-Jun-13 00:51N 34°36' E 134°57'411.8
2018-Jun-13 00:30N 34°35' E 134°53'611.3
2018-Jun-13 00:00N 34°32' E 134°47'611.5
2018-Jun-12 23:30N 34°30' E 134°40'612.1
2018-Jun-12 23:00N 34°28' E 134°33'612.4
2018-Jun-12 22:30N 34°26' E 134°27'612.3
2018-Jun-12 22:00N 34°24' E 134°19'257 8.0
2018-Jun-11 14:00N 35°02' E 129°10'510.4
2018-Jun-11 13:30N 35°05' E 129°06'3 5.5
2018-Jun-11 13:00N 35°07' E 129°03'0 0.0
2018-Jun-11 12:29N 35°07' E 129°03'0 0.0
2018-Jun-11 11:59N 35°07' E 129°03'0 0.0
2018-Jun-11 11:26N 35°07' E 129°03'0 0.0
2018-Jun-11 10:59N 35°07' E 129°03'0 0.0
2018-Jun-11 10:29N 35°07' E 129°03'0 0.0
2018-Jun-11 09:59N 35°07' E 129°03'0 0.0
2018-Jun-11 09:29N 35°07' E 129°03'0 0.0
2018-Jun-11 08:59N 35°07' E 129°03'0 0.0
2018-Jun-11 08:23N 35°07' E 129°03'0 0.0
2018-Jun-11 07:59N 35°07' E 129°03'0 0.0
2018-Jun-11 07:29N 35°07' E 129°03'0 0.0
2018-Jun-11 06:59N 35°07' E 129°03'0 0.0
2018-Jun-11 06:23N 35°07' E 129°03'0 0.0
2018-Jun-11 05:59N 35°07' E 129°03'0 0.0
2018-Jun-11 05:29N 35°07' E 129°03'0 0.0
2018-Jun-11 04:56N 35°07' E 129°03'0 0.1
2018-Jun-11 04:30N 35°07' E 129°03'4 7.5
2018-Jun-11 04:00N 35°05' E 129°07'  

Dump ship's entire track history